Time,TemperatureF,DewpointF,PressureIn,WindDirection,WindDirectionDegrees,WindSpeedMPH,WindSpeedGustMPH,Humidity,HourlyPrecipIn,Conditions,Clouds,dailyrainin,SoftwareType,DateUTC
2013-03-20 00:03:00,9.7,0.3,30.28,NW,317,9.0,13.0,65,0.00,,,0.03,Wunderground v.1.15,2013-03-20 05:03:00,
2013-03-20 00:08:00,9.6,0.2,30.28,NW,305,5.0,14.0,65,0.00,,,0.03,Wunderground v.1.15,2013-03-20 05:08:00,
2013-03-20 00:13:00,9.6,0.2,30.28,NW,304,5.0,12.0,65,0.00,,,0.03,Wunderground v.1.15,2013-03-20 05:13:00,
2013-03-20 00:18:00,9.5,0.1,30.28,West,275,3.0,12.0,65,0.00,,,0.03,Wunderground v.1.15,2013-03-20 05:18:00,
2013-03-20 00:23:00,9.5,0.1,30.28,West,274,11.0,11.0,65,0.00,,,0.03,Wunderground v.1.15,2013-03-20 05:23:00,
2013-03-20 00:28:00,9.4,0.3,30.28,NW,323,2.0,11.0,66,0.00,,,0.03,Wunderground v.1.15,2013-03-20 05:28:00,
2013-03-20 00:34:00,9.3,0.2,30.28,NW,326,3.0,9.0,66,0.00,,,0.03,Wunderground v.1.15,2013-03-20 05:34:00,
2013-03-20 00:39:00,9.1,0.0,30.28,NW,306,6.0,10.0,66,0.00,,,0.03,Wunderground v.1.15,2013-03-20 05:39:00,
2013-03-20 00:44:00,9.2,0.1,30.28,WNW,296,3.0,13.0,66,0.00,,,0.03,Wunderground v.1.15,2013-03-20 05:44:00,
2013-03-20 00:49:00,9.2,0.1,30.28,WNW,293,7.0,13.0,66,0.00,,,0.03,Wunderground v.1.15,2013-03-20 05:49:00,
2013-03-20 00:54:00,9.1,0.0,30.28,WNW,302,5.0,14.0,66,0.00,,,0.03,Wunderground v.1.15,2013-03-20 05:54:00,
2013-03-20 00:59:00,9.1,0.4,30.28,WNW,300,9.0,14.0,67,0.00,,,0.03,Wunderground v.1.15,2013-03-20 05:59:00,
2013-03-20 01:05:00,9.0,0.3,30.28,West,275,4.0,17.0,67,0.00,,,0.03,Wunderground v.1.15,2013-03-20 06:05:00,
2013-03-20 01:12:00,8.9,0.2,30.28,NW,309,1.0,8.0,67,0.00,,,0.03,Wunderground v.1.15,2013-03-20 06:12:00,
2013-03-20 01:17:00,8.8,0.1,30.28,WNW,298,7.0,11.0,67,0.00,,,0.03,Wunderground v.1.15,2013-03-20 06:17:00,
2013-03-20 01:23:00,8.7,0.0,30.28,NNW,327,9.0,9.0,67,0.00,,,0.03,Wunderground v.1.15,2013-03-20 06:23:00,
2013-03-20 01:28:00,8.7,0.0,30.28,NW,312,11.0,11.0,67,0.00,,,0.03,Wunderground v.1.15,2013-03-20 06:28:00,
2013-03-20 01:33:00,8.8,0.1,30.28,NW,316,2.0,8.0,67,0.00,,,0.03,Wunderground v.1.15,2013-03-20 06:33:00,
2013-03-20 01:39:00,8.6,-0.1,30.28,WNW,302,6.0,8.0,67,0.00,,,0.03,Wunderground v.1.15,2013-03-20 06:39:00,
2013-03-20 01:44:00,8.5,0.1,30.28,NW,325,14.0,14.0,68,0.00,,,0.03,Wunderground v.1.15,2013-03-20 06:44:00,
2013-03-20 01:50:00,8.3,-0.1,30.28,WNW,292,6.0,14.0,68,0.00,,,0.03,Wunderground v.1.15,2013-03-20 06:50:00,
2013-03-20 01:56:00,8.3,-0.1,30.28,NW,304,7.0,8.0,68,0.00,,,0.03,Wunderground v.1.15,2013-03-20 06:56:00,
2013-03-20 02:02:00,8.2,-0.2,30.28,NW,312,4.0,8.0,68,0.00,,,0.03,Wunderground v.1.15,2013-03-20 07:02:00,
2013-03-20 02:08:00,8.0,-0.4,30.28,NW,318,6.0,8.0,68,0.00,,,0.03,Wunderground v.1.15,2013-03-20 07:08:00,
2013-03-20 02:14:00,7.8,-0.3,30.28,NW,315,7.0,9.0,69,0.00,,,0.03,Wunderground v.1.15,2013-03-20 07:14:00,
2013-03-20 02:19:00,7.8,-0.3,30.28,West,277,2.0,9.0,69,0.00,,,0.03,Wunderground v.1.15,2013-03-20 07:19:00,
2013-03-20 02:25:00,7.7,-0.4,30.28,WNW,302,5.0,5.0,69,0.00,,,0.03,Wunderground v.1.15,2013-03-20 07:25:00,
2013-03-20 02:30:00,7.6,-0.5,30.28,NW,311,10.0,10.0,69,0.00,,,0.03,Wunderground v.1.15,2013-03-20 07:30:00,
2013-03-20 02:35:00,7.7,-0.1,30.28,NW,309,5.0,7.0,70,0.00,,,0.00,Wunderground v.1.15,2013-03-20 07:35:00,
2013-03-20 02:41:00,7.8,0.0,30.28,WNW,296,3.0,6.0,70,0.00,,,0.00,Wunderground v.1.15,2013-03-20 07:41:00,
2013-03-20 02:47:00,7.8,0.0,30.28,NW,321,5.0,7.0,70,0.00,,,0.00,Wunderground v.1.15,2013-03-20 07:47:00,
2013-03-20 02:53:00,7.7,-0.1,30.28,WNW,300,7.0,8.0,70,0.00,,,0.00,Wunderground v.1.15,2013-03-20 07:53:00,
2013-03-20 02:59:00,7.6,-0.5,30.28,NNW,328,5.0,8.0,69,0.00,,,0.00,Wunderground v.1.15,2013-03-20 07:59:00,
2013-03-20 03:04:00,7.6,-0.1,30.28,NNW,330,8.0,12.0,70,0.00,,,0.00,Wunderground v.1.15,2013-03-20 08:04:00,
2013-03-20 03:09:00,7.7,-0.4,30.28,WSW,249,3.0,12.0,69,0.00,,,0.00,Wunderground v.1.15,2013-03-20 08:09:00,
2013-03-20 03:14:00,7.6,-0.5,30.28,West,279,4.0,14.0,69,0.00,,,0.00,Wunderground v.1.15,2013-03-20 08:14:00,
2013-03-20 03:19:00,7.6,-0.5,30.28,NW,315,8.0,14.0,69,0.00,,,0.00,Wunderground v.1.15,2013-03-20 08:19:00,
2013-03-20 03:24:00,7.5,-0.6,30.27,NW,304,8.0,9.0,69,0.00,,,0.00,Wunderground v.1.15,2013-03-20 08:24:00,
2013-03-20 03:29:00,7.5,-0.6,30.28,NW,304,4.0,10.0,69,0.00,,,0.00,Wunderground v.1.15,2013-03-20 08:29:00,
2013-03-20 03:34:00,7.6,-0.5,30.28,WNW,302,5.0,10.0,69,0.00,,,0.00,Wunderground v.1.15,2013-03-20 08:34:00,
2013-03-20 03:39:00,7.6,-0.8,30.28,NW,305,5.0,10.0,68,0.00,,,0.00,Wunderground v.1.15,2013-03-20 08:39:00,
2013-03-20 03:45:00,7.5,-0.6,30.28,NW,304,4.0,7.0,69,0.00,,,0.00,Wunderground v.1.15,2013-03-20 08:45:00,
2013-03-20 03:50:00,7.4,-0.6,30.27,WNW,294,7.0,10.0,69,0.00,,,0.00,Wunderground v.1.15,2013-03-20 08:50:00,
2013-03-20 03:55:00,7.3,-0.7,30.27,NW,307,7.0,10.0,69,0.00,,,0.00,Wunderground v.1.15,2013-03-20 08:55:00,
2013-03-20 04:00:00,7.3,-0.7,30.27,WNW,298,7.0,10.0,69,0.00,,,0.00,Wunderground v.1.15,2013-03-20 09:00:00,
2013-03-20 04:05:00,7.2,-0.8,30.27,WNW,300,11.0,11.0,69,0.00,,,0.00,Wunderground v.1.15,2013-03-20 09:05:00,
2013-03-20 04:10:00,7.3,-0.4,30.27,NW,311,3.0,13.0,70,0.00,,,0.00,Wunderground v.1.15,2013-03-20 09:10:00,
2013-03-20 04:15:00,7.3,-0.4,30.27,NW,310,9.0,12.0,70,0.00,,,0.00,Wunderground v.1.15,2013-03-20 09:15:00,
2013-03-20 04:21:00,7.2,-0.5,30.28,NW,306,8.0,8.0,70,0.00,,,0.00,Wunderground v.1.15,2013-03-20 09:21:00,
2013-03-20 04:26:00,7.0,-0.7,30.27,WNW,300,6.0,10.0,70,0.00,,,0.00,Wunderground v.1.15,2013-03-20 09:26:00,
2013-03-20 04:31:00,6.9,-0.5,30.27,West,275,3.0,6.0,71,0.00,,,0.00,Wunderground v.1.15,2013-03-20 09:31:00,
2013-03-20 04:37:00,6.8,-0.6,30.27,West,264,6.0,13.0,71,0.00,,,0.00,Wunderground v.1.15,2013-03-20 09:37:00,
2013-03-20 04:42:00,6.9,-0.5,30.28,NW,319,5.0,10.0,71,0.00,,,0.00,Wunderground v.1.15,2013-03-20 09:42:00,
2013-03-20 04:47:00,6.8,-0.6,30.28,NNW,338,12.0,14.0,71,0.00,,,0.00,Wunderground v.1.15,2013-03-20 09:47:00,
2013-03-20 04:52:00,6.8,-0.6,30.28,WNW,303,9.0,9.0,71,0.00,,,0.00,Wunderground v.1.15,2013-03-20 09:52:00,
2013-03-20 04:57:00,6.7,-0.7,30.28,WNW,302,5.0,10.0,71,0.00,,,0.00,Wunderground v.1.15,2013-03-20 09:57:00,
2013-03-20 05:02:00,6.5,-0.9,30.28,NW,319,9.0,12.0,71,0.00,,,0.00,Wunderground v.1.15,2013-03-20 10:02:00,
2013-03-20 05:07:00,6.5,-0.9,30.28,NW,304,7.0,12.0,71,0.00,,,0.00,Wunderground v.1.15,2013-03-20 10:07:00,
2013-03-20 05:12:00,6.6,-0.8,30.28,NW,323,6.0,9.0,71,0.00,,,0.00,Wunderground v.1.15,2013-03-20 10:12:00,
2013-03-20 05:18:00,6.5,-0.9,30.28,WNW,302,4.0,12.0,71,0.00,,,0.00,Wunderground v.1.15,2013-03-20 10:18:00,
2013-03-20 05:23:00,6.3,-1.1,30.29,NW,311,2.0,6.0,71,0.00,,,0.00,Wunderground v.1.15,2013-03-20 10:23:00,
2013-03-20 05:28:00,6.1,-1.3,30.29,NW,314,5.0,9.0,71,0.00,,,0.00,Wunderground v.1.15,2013-03-20 10:28:00,
2013-03-20 05:33:00,6.1,-1.0,30.29,NW,306,3.0,10.0,72,0.00,,,0.00,Wunderground v.1.15,2013-03-20 10:33:00,
2013-03-20 05:38:00,5.9,-1.2,30.29,WNW,302,7.0,10.0,72,0.00,,,0.00,Wunderground v.1.15,2013-03-20 10:38:00,
2013-03-20 05:43:00,5.9,-1.2,30.29,WNW,300,3.0,8.0,72,0.00,,,0.00,Wunderground v.1.15,2013-03-20 10:43:00,
2013-03-20 05:49:00,5.7,-1.4,30.29,West,278,4.0,10.0,72,0.00,,,0.00,Wunderground v.1.15,2013-03-20 10:49:00,
2013-03-20 05:54:00,5.7,-1.4,30.29,NW,307,5.0,8.0,72,0.00,,,0.00,Wunderground v.1.15,2013-03-20 10:54:00,
2013-03-20 05:59:00,5.6,-1.5,30.29,WNW,286,2.0,11.0,72,0.00,,,0.00,Wunderground v.1.15,2013-03-20 10:59:00,
2013-03-20 06:04:00,5.4,-1.7,30.29,WNW,299,4.0,7.0,72,0.00,,,0.00,Wunderground v.1.15,2013-03-20 11:04:00,
2013-03-20 06:09:00,5.3,-1.8,30.30,WNW,284,6.0,7.0,72,0.00,,,0.00,Wunderground v.1.15,2013-03-20 11:09:00,
2013-03-20 06:14:00,5.4,-1.4,30.30,NW,313,4.0,8.0,73,0.00,,,0.00,Wunderground v.1.15,2013-03-20 11:14:00,
2013-03-20 06:19:00,5.3,-1.5,30.30,NW,319,3.0,12.0,73,0.00,,,0.00,Wunderground v.1.15,2013-03-20 11:19:00,
2013-03-20 06:24:00,5.4,-1.4,30.30,West,279,6.0,7.0,73,0.00,,,0.00,Wunderground v.1.15,2013-03-20 11:24:00,
2013-03-20 06:29:00,5.3,-1.8,30.30,NW,311,6.0,9.0,72,0.00,,,0.00,Wunderground v.1.15,2013-03-20 11:29:00,
2013-03-20 06:34:00,5.2,-1.9,30.30,WNW,287,2.0,8.0,72,0.00,,,0.00,Wunderground v.1.15,2013-03-20 11:34:00,
2013-03-20 06:39:00,5.2,-1.6,30.30,NW,307,6.0,8.0,73,0.00,,,0.00,Wunderground v.1.15,2013-03-20 11:39:00,
2013-03-20 06:44:00,5.2,-1.9,30.29,WNW,290,7.0,13.0,72,0.00,,,0.00,Wunderground v.1.15,2013-03-20 11:44:00,
2013-03-20 06:50:00,5.3,-1.8,30.30,WNW,299,4.0,13.0,72,0.00,,,0.00,Wunderground v.1.15,2013-03-20 11:50:00,
2013-03-20 06:55:00,5.1,-2.0,30.29,WNW,288,5.0,7.0,72,0.00,,,0.00,Wunderground v.1.15,2013-03-20 11:55:00,
2013-03-20 07:00:00,5.1,-2.0,30.29,WNW,300,6.0,9.0,72,0.00,,,0.00,Wunderground v.1.15,2013-03-20 12:00:00,
2013-03-20 07:05:00,5.2,-1.9,30.30,NW,319,4.0,10.0,72,0.00,,,0.00,Wunderground v.1.15,2013-03-20 12:05:00,
2013-03-20 07:10:00,5.2,-1.9,30.30,NW,306,3.0,10.0,72,0.00,,,0.00,Wunderground v.1.15,2013-03-20 12:10:00,
2013-03-20 07:15:00,5.2,-1.9,30.30,WNW,292,4.0,8.0,72,0.00,,,0.00,Wunderground v.1.15,2013-03-20 12:15:00,
2013-03-20 07:20:00,5.1,-2.0,30.29,WNW,297,4.0,8.0,72,0.00,,,0.00,Wunderground v.1.15,2013-03-20 12:20:00,
2013-03-20 07:25:00,5.2,-1.9,30.30,WNW,284,6.0,7.0,72,0.00,,,0.00,Wunderground v.1.15,2013-03-20 12:25:00,
2013-03-20 07:30:00,5.3,-1.8,30.30,NW,305,2.0,5.0,72,0.00,,,0.00,Wunderground v.1.15,2013-03-20 12:30:00,
2013-03-20 07:36:00,5.3,-1.8,30.30,NW,313,4.0,9.0,72,0.00,,,0.00,Wunderground v.1.15,2013-03-20 12:36:00,
2013-03-20 07:41:00,5.3,-1.8,30.30,WNW,291,1.0,4.0,72,0.00,,,0.00,Wunderground v.1.15,2013-03-20 12:41:00,
2013-03-20 07:46:00,5.5,-1.6,30.30,West,277,4.0,12.0,72,0.00,,,0.00,Wunderground v.1.15,2013-03-20 12:46:00,
2013-03-20 07:51:00,5.8,-1.6,30.30,WNW,285,6.0,11.0,71,0.00,,,0.00,Wunderground v.1.15,2013-03-20 12:51:00,
2013-03-20 07:56:00,5.9,-1.5,30.30,NW,304,5.0,11.0,71,0.00,,,0.00,Wunderground v.1.15,2013-03-20 12:56:00,
2013-03-20 08:01:00,6.1,-1.3,30.29,NW,306,3.0,5.0,71,0.00,,,0.00,Wunderground v.1.15,2013-03-20 13:01:00,
2013-03-20 08:07:00,6.4,-1.0,30.30,WNW,284,3.0,11.0,71,0.00,,,0.00,Wunderground v.1.15,2013-03-20 13:07:00,
2013-03-20 08:12:00,6.8,-0.9,30.29,NW,313,1.0,9.0,70,0.00,,,0.00,Wunderground v.1.15,2013-03-20 13:12:00,
2013-03-20 08:17:00,7.2,-0.8,30.29,NW,315,8.0,11.0,69,0.00,,,0.00,Wunderground v.1.15,2013-03-20 13:17:00,
2013-03-20 08:22:00,7.5,-0.9,30.29,WNW,296,4.0,9.0,68,0.00,,,0.00,Wunderground v.1.15,2013-03-20 13:22:00,
2013-03-20 08:27:00,7.9,-0.5,30.29,NW,325,6.0,16.0,68,0.00,,,0.00,Wunderground v.1.15,2013-03-20 13:27:00,
2013-03-20 08:32:00,8.3,-0.4,30.29,WNW,286,8.0,12.0,67,0.00,,,0.00,Wunderground v.1.15,2013-03-20 13:32:00,
2013-03-20 08:38:00,8.7,0.0,30.29,NW,323,5.0,12.0,67,0.00,,,0.00,Wunderground v.1.15,2013-03-20 13:38:00,
2013-03-20 08:43:00,9.1,0.0,30.29,NW,305,11.0,11.0,66,0.00,,,0.00,Wunderground v.1.15,2013-03-20 13:43:00,
2013-03-20 08:48:00,9.6,0.2,30.29,West,278,5.0,18.0,65,0.00,,,0.00,Wunderground v.1.15,2013-03-20 13:48:00,
2013-03-20 08:53:00,10.0,0.6,30.29,WNW,294,10.0,19.0,65,0.00,,,0.00,Wunderground v.1.15,2013-03-20 13:53:00,
2013-03-20 08:58:00,10.4,0.6,30.29,WNW,290,12.0,19.0,64,0.00,,,0.00,Wunderground v.1.15,2013-03-20 13:58:00,
2013-03-20 09:03:00,10.7,0.6,30.29,WNW,295,8.0,12.0,63,0.00,,,0.00,Wunderground v.1.15,2013-03-20 14:03:00,
2013-03-20 09:08:00,11.2,1.0,30.29,WNW,283,11.0,12.0,63,0.00,,,0.00,Wunderground v.1.15,2013-03-20 14:08:00,
2013-03-20 09:14:00,11.5,1.0,30.29,NW,313,12.0,13.0,62,0.00,,,0.00,Wunderground v.1.15,2013-03-20 14:14:00,
2013-03-20 09:19:00,11.7,1.2,30.28,WNW,302,14.0,15.0,62,0.00,,,0.00,Wunderground v.1.15,2013-03-20 14:19:00,
2013-03-20 09:24:00,11.9,1.4,30.28,NW,313,11.0,14.0,62,0.00,,,0.00,Wunderground v.1.15,2013-03-20 14:24:00,
2013-03-20 09:29:00,12.2,1.3,30.28,WNW,297,4.0,15.0,61,0.00,,,0.00,Wunderground v.1.15,2013-03-20 14:29:00,
2013-03-20 09:34:00,12.4,1.5,30.28,WNW,302,13.0,13.0,61,0.00,,,0.00,Wunderground v.1.15,2013-03-20 14:34:00,
2013-03-20 09:39:00,12.6,1.7,30.28,NW,312,14.0,19.0,61,0.00,,,0.00,Wunderground v.1.15,2013-03-20 14:39:00,
2013-03-20 09:44:00,13.0,1.7,30.28,WNW,296,9.0,18.0,60,0.00,,,0.00,Wunderground v.1.15,2013-03-20 14:44:00,
2013-03-20 09:50:00,13.2,1.9,30.28,NW,315,11.0,18.0,60,0.00,,,0.00,Wunderground v.1.15,2013-03-20 14:50:00,
2013-03-20 09:55:00,13.3,1.6,30.28,NW,310,6.0,13.0,59,0.00,,,0.00,Wunderground v.1.15,2013-03-20 14:55:00,
2013-03-20 10:00:00,13.6,1.9,30.27,NW,306,8.0,16.0,59,0.00,,,0.00,Wunderground v.1.15,2013-03-20 15:00:00,
2013-03-20 10:05:00,13.8,2.1,30.28,WNW,298,6.0,14.0,59,0.00,,,0.00,Wunderground v.1.15,2013-03-20 15:05:00,
2013-03-20 10:10:00,14.1,2.0,30.28,West,276,15.0,17.0,58,0.00,,,0.00,Wunderground v.1.15,2013-03-20 15:10:00,
2013-03-20 10:15:00,14.1,2.0,30.27,NNW,346,11.0,15.0,58,0.00,,,0.00,Wunderground v.1.15,2013-03-20 15:15:00,
2013-03-20 10:21:00,14.4,2.3,30.27,NW,321,4.0,9.0,58,0.00,,,0.00,Wunderground v.1.15,2013-03-20 15:21:00,
2013-03-20 10:26:00,14.7,2.6,30.27,NW,323,2.0,11.0,58,0.00,,,0.00,Wunderground v.1.15,2013-03-20 15:26:00,
2013-03-20 10:31:00,14.9,2.4,30.27,NNW,334,6.0,8.0,57,0.00,,,0.00,Wunderground v.1.15,2013-03-20 15:31:00,
2013-03-20 10:36:00,15.0,2.9,30.27,NW,323,5.0,16.0,58,0.00,,,0.00,Wunderground v.1.15,2013-03-20 15:36:00,
2013-03-20 10:42:00,15.0,2.9,30.27,NW,308,6.0,9.0,58,0.00,,,0.00,Wunderground v.1.15,2013-03-20 15:42:00,
2013-03-20 10:47:00,15.2,3.1,30.27,WNW,302,6.0,12.0,58,0.00,,,0.00,Wunderground v.1.15,2013-03-20 15:47:00,
2013-03-20 10:52:00,15.4,3.2,30.28,NNE,27,4.0,13.0,58,0.00,,,0.00,Wunderground v.1.15,2013-03-20 15:52:00,
2013-03-20 10:57:00,15.6,3.4,30.27,NW,316,9.0,16.0,58,0.00,,,0.00,Wunderground v.1.15,2013-03-20 15:57:00,
2013-03-20 11:02:00,15.7,3.1,30.27,NW,323,14.0,14.0,57,0.00,,,0.00,Wunderground v.1.15,2013-03-20 16:02:00,
2013-03-20 11:07:00,16.0,4.2,30.27,WNW,300,8.0,14.0,59,0.00,,,0.00,Wunderground v.1.15,2013-03-20 16:07:00,
2013-03-20 11:12:00,16.4,4.2,30.27,NW,311,11.0,11.0,58,0.00,,,0.00,Wunderground v.1.15,2013-03-20 16:12:00,
2013-03-20 11:18:00,16.6,4.7,30.27,NW,325,9.0,15.0,59,0.00,,,0.00,Wunderground v.1.15,2013-03-20 16:18:00,
2013-03-20 11:23:00,16.9,4.3,30.26,WNW,292,7.0,9.0,57,0.00,,,0.00,Wunderground v.1.15,2013-03-20 16:23:00,
2013-03-20 11:28:00,17.4,4.7,30.26,NW,306,9.0,12.0,57,0.00,,,0.00,Wunderground v.1.15,2013-03-20 16:28:00,
2013-03-20 11:33:00,18.0,5.3,30.26,NW,312,8.0,15.0,57,0.00,,,0.00,Wunderground v.1.15,2013-03-20 16:33:00,
2013-03-20 11:38:00,18.4,5.3,30.27,NW,315,2.0,15.0,56,0.00,,,0.00,Wunderground v.1.15,2013-03-20 16:38:00,
2013-03-20 11:43:00,18.9,6.2,30.26,NNW,342,5.0,10.0,57,0.00,,,0.00,Wunderground v.1.15,2013-03-20 16:43:00,
2013-03-20 11:49:00,19.2,5.3,30.26,WNW,296,6.0,12.0,54,0.00,,,0.00,Wunderground v.1.15,2013-03-20 16:49:00,
2013-03-20 11:54:00,19.1,5.6,30.26,WNW,284,4.0,13.0,55,0.00,,,0.00,Wunderground v.1.15,2013-03-20 16:54:00,
2013-03-20 11:59:00,19.0,5.9,30.25,NW,311,9.0,16.0,56,0.00,,,0.00,Wunderground v.1.15,2013-03-20 16:59:00,
2013-03-20 12:04:00,19.5,6.3,30.26,NW,313,6.0,11.0,56,0.00,,,0.00,Wunderground v.1.15,2013-03-20 17:04:00,
2013-03-20 12:09:00,19.9,6.3,30.26,WNW,298,5.0,15.0,55,0.00,,,0.00,Wunderground v.1.15,2013-03-20 17:09:00,
2013-03-20 12:14:00,20.4,6.4,30.26,West,278,5.0,13.0,54,0.00,,,0.00,Wunderground v.1.15,2013-03-20 17:14:00,
2013-03-20 12:19:00,21.0,7.3,30.25,NW,309,4.0,13.0,55,0.00,,,0.00,Wunderground v.1.15,2013-03-20 17:19:00,
2013-03-20 12:24:00,20.1,6.1,30.25,WNW,297,7.0,12.0,54,0.00,,,0.00,Wunderground v.1.15,2013-03-20 17:24:00,
2013-03-20 12:29:00,20.5,6.9,30.25,West,263,7.0,15.0,55,0.00,,,0.00,Wunderground v.1.15,2013-03-20 17:29:00,
2013-03-20 12:35:00,20.7,7.1,30.25,NW,314,7.0,13.0,55,0.00,,,0.00,Wunderground v.1.15,2013-03-20 17:35:00,
2013-03-20 12:40:00,20.7,6.7,30.25,WNW,300,9.0,13.0,54,0.00,,,0.00,Wunderground v.1.15,2013-03-20 17:40:00,
2013-03-20 12:45:00,21.0,7.3,30.25,WNW,302,4.0,13.0,55,0.00,,,0.00,Wunderground v.1.15,2013-03-20 17:45:00,
2013-03-20 12:50:00,21.2,7.1,30.25,NW,312,6.0,14.0,54,0.00,,,0.00,Wunderground v.1.15,2013-03-20 17:50:00,
2013-03-20 12:55:00,20.8,6.3,30.25,NW,312,10.0,13.0,53,0.00,,,0.00,Wunderground v.1.15,2013-03-20 17:55:00,
2013-03-20 13:00:00,21.0,7.3,30.25,NW,321,13.0,14.0,55,0.00,,,0.00,Wunderground v.1.15,2013-03-20 18:00:00,
2013-03-20 13:05:00,21.0,6.9,30.25,WNW,286,9.0,16.0,54,0.00,,,0.00,Wunderground v.1.15,2013-03-20 18:05:00,
2013-03-20 13:10:00,21.2,7.1,30.25,NW,306,3.0,16.0,54,0.00,,,0.00,Wunderground v.1.15,2013-03-20 18:10:00,
2013-03-20 13:15:00,21.5,7.0,30.25,West,273,6.0,14.0,53,0.00,,,0.00,Wunderground v.1.15,2013-03-20 18:15:00,
2013-03-20 13:20:00,21.3,6.8,30.25,NW,306,8.0,17.0,53,0.00,,,0.00,Wunderground v.1.15,2013-03-20 18:20:00,
2013-03-20 13:25:00,21.2,6.7,30.24,NW,325,9.0,12.0,53,0.00,,,0.00,Wunderground v.1.15,2013-03-20 18:25:00,
2013-03-20 13:30:00,21.7,8.0,30.24,NE,34,13.0,13.0,55,0.00,,,0.00,Wunderground v.1.15,2013-03-20 18:30:00,
2013-03-20 13:35:00,21.9,7.4,30.24,West,279,6.0,13.0,53,0.00,,,0.00,Wunderground v.1.15,2013-03-20 18:35:00,
2013-03-20 13:41:00,21.7,7.2,30.24,NW,314,8.0,8.0,53,0.00,,,0.00,Wunderground v.1.15,2013-03-20 18:41:00,
2013-03-20 13:46:00,21.8,7.3,30.24,WNW,300,11.0,11.0,53,0.00,,,0.00,Wunderground v.1.15,2013-03-20 18:46:00,
2013-03-20 13:51:00,21.9,6.9,30.23,WNW,284,5.0,8.0,52,0.00,,,0.00,Wunderground v.1.15,2013-03-20 18:51:00,
2013-03-20 13:56:00,22.0,7.0,30.23,NW,320,5.0,13.0,52,0.00,,,0.00,Wunderground v.1.15,2013-03-20 18:56:00,
2013-03-20 14:01:00,22.5,7.9,30.23,NW,313,9.0,16.0,53,0.00,,,0.00,Wunderground v.1.15,2013-03-20 19:01:00,
2013-03-20 14:07:00,22.6,7.6,30.23,West,281,9.0,20.0,52,0.00,,,0.00,Wunderground v.1.15,2013-03-20 19:07:00,
2013-03-20 14:12:00,22.5,7.5,30.23,NW,318,11.0,11.0,52,0.00,,,0.00,Wunderground v.1.15,2013-03-20 19:12:00,
2013-03-20 14:17:00,22.6,7.6,30.23,NW,312,6.0,11.0,52,0.00,,,0.00,Wunderground v.1.15,2013-03-20 19:17:00,
2013-03-20 14:22:00,23.4,8.3,30.23,WNW,292,5.0,10.0,52,0.00,,,0.00,Wunderground v.1.15,2013-03-20 19:22:00,
2013-03-20 14:27:00,23.8,8.7,30.23,NW,319,11.0,16.0,52,0.00,,,0.00,Wunderground v.1.15,2013-03-20 19:27:00,
2013-03-20 14:32:00,23.6,8.1,30.23,NW,313,10.0,10.0,51,0.00,,,0.00,Wunderground v.1.15,2013-03-20 19:32:00,
2013-03-20 14:37:00,23.5,8.0,30.22,NW,313,6.0,12.0,51,0.00,,,0.00,Wunderground v.1.15,2013-03-20 19:37:00,
2013-03-20 14:42:00,24.1,9.4,30.22,West,269,6.0,8.0,53,0.00,,,0.00,Wunderground v.1.15,2013-03-20 19:42:00,
2013-03-20 14:47:00,24.4,9.3,30.22,NW,308,8.0,11.0,52,0.00,,,0.00,Wunderground v.1.15,2013-03-20 19:47:00,
2013-03-20 14:52:00,24.2,8.7,30.22,WNW,301,4.0,11.0,51,0.00,,,0.00,Wunderground v.1.15,2013-03-20 19:52:00,
2013-03-20 14:57:00,23.9,7.5,30.22,West,281,8.0,13.0,49,0.00,,,0.00,Wunderground v.1.15,2013-03-20 19:57:00,
2013-03-20 15:03:00,24.0,8.0,30.21,WNW,293,6.0,12.0,50,0.00,,,0.00,Wunderground v.1.15,2013-03-20 20:03:00,
2013-03-20 15:08:00,24.4,8.8,30.21,WNW,303,9.0,12.0,51,0.00,,,0.00,Wunderground v.1.15,2013-03-20 20:08:00,
2013-03-20 15:13:00,24.5,8.0,30.21,NW,316,14.0,14.0,49,0.00,,,0.00,Wunderground v.1.15,2013-03-20 20:13:00,
2013-03-20 15:18:00,23.9,7.5,30.21,NW,306,7.0,14.0,49,0.00,,,0.00,Wunderground v.1.15,2013-03-20 20:18:00,
2013-03-20 15:23:00,24.3,8.3,30.21,WNW,296,5.0,15.0,50,0.00,,,0.00,Wunderground v.1.15,2013-03-20 20:23:00,
2013-03-20 15:28:00,24.5,8.5,30.21,NW,313,11.0,15.0,50,0.00,,,0.00,Wunderground v.1.15,2013-03-20 20:28:00,
2013-03-20 15:33:00,24.2,7.8,30.21,WNW,299,5.0,12.0,49,0.00,,,0.00,Wunderground v.1.15,2013-03-20 20:33:00,
2013-03-20 15:39:00,24.4,8.8,30.20,West,270,2.0,12.0,51,0.00,,,0.00,Wunderground v.1.15,2013-03-20 20:39:00,
2013-03-20 15:44:00,25.1,8.6,30.20,WNW,296,3.0,13.0,49,0.00,,,0.00,Wunderground v.1.15,2013-03-20 20:44:00,
2013-03-20 15:49:00,25.0,7.6,30.20,West,280,6.0,13.0,47,0.00,,,0.00,Wunderground v.1.15,2013-03-20 20:49:00,
2013-03-20 15:54:00,24.7,8.2,30.20,WNW,302,8.0,14.0,49,0.00,,,0.00,Wunderground v.1.15,2013-03-20 20:54:00,
2013-03-20 15:59:00,25.1,9.0,30.20,WNW,302,6.0,14.0,50,0.00,,,0.00,Wunderground v.1.15,2013-03-20 20:59:00,
2013-03-20 16:04:00,25.0,8.5,30.20,West,278,4.0,11.0,49,0.00,,,0.00,Wunderground v.1.15,2013-03-20 21:04:00,
2013-03-20 16:09:00,25.2,9.1,30.20,WNW,301,3.0,11.0,50,0.00,,,0.00,Wunderground v.1.15,2013-03-20 21:09:00,
2013-03-20 16:14:00,25.3,8.3,30.20,WNW,294,8.0,13.0,48,0.00,,,0.00,Wunderground v.1.15,2013-03-20 21:14:00,
2013-03-20 16:19:00,24.3,7.9,30.20,West,272,5.0,13.0,49,0.00,,,0.00,Wunderground v.1.15,2013-03-20 21:19:00,
2013-03-20 16:24:00,24.4,8.8,30.20,WNW,289,7.0,11.0,51,0.00,,,0.00,Wunderground v.1.15,2013-03-20 21:24:00,
2013-03-20 16:30:00,24.8,8.3,30.20,NW,307,8.0,13.0,49,0.00,,,0.01,Wunderground v.1.15,2013-03-20 21:30:00,
2013-03-20 16:35:00,25.0,9.0,30.20,WNW,302,2.0,14.0,50,0.00,,,0.01,Wunderground v.1.15,2013-03-20 21:35:00,
2013-03-20 16:40:00,25.4,8.9,30.20,West,266,3.0,14.0,49,0.00,,,0.01,Wunderground v.1.15,2013-03-20 21:40:00,
2013-03-20 16:45:00,24.8,8.3,30.20,West,269,4.0,8.0,49,0.00,,,0.01,Wunderground v.1.15,2013-03-20 21:45:00,
2013-03-20 16:50:00,24.3,8.3,30.20,WNW,301,10.0,10.0,50,0.00,,,0.01,Wunderground v.1.15,2013-03-20 21:50:00,
2013-03-20 16:55:00,24.6,8.1,30.20,WNW,298,5.0,14.0,49,0.00,,,0.01,Wunderground v.1.15,2013-03-20 21:55:00,
2013-03-20 17:00:00,24.5,8.5,30.19,WNW,300,4.0,14.0,50,0.00,,,0.01,Wunderground v.1.15,2013-03-20 22:00:00,
2013-03-20 17:06:00,24.8,8.3,30.19,WNW,296,4.0,10.0,49,0.00,,,0.01,Wunderground v.1.15,2013-03-20 22:06:00,
2013-03-20 17:11:00,24.4,8.4,30.19,NW,314,3.0,7.0,50,0.00,,,0.01,Wunderground v.1.15,2013-03-20 22:11:00,
2013-03-20 17:17:00,24.5,8.0,30.19,WNW,300,3.0,8.0,49,0.00,,,0.01,Wunderground v.1.15,2013-03-20 22:17:00,
2013-03-20 17:22:00,24.4,8.4,30.19,WNW,296,5.0,7.0,50,0.00,,,0.01,Wunderground v.1.15,2013-03-20 22:22:00,
2013-03-20 17:27:00,24.0,8.0,30.20,SW,232,6.0,10.0,50,0.00,,,0.01,Wunderground v.1.15,2013-03-20 22:27:00,
2013-03-20 17:32:00,23.9,7.9,30.20,WNW,299,4.0,9.0,50,0.00,,,0.01,Wunderground v.1.15,2013-03-20 22:32:00,
2013-03-20 17:37:00,23.8,8.3,30.20,WNW,301,4.0,10.0,51,0.00,,,0.01,Wunderground v.1.15,2013-03-20 22:37:00,
2013-03-20 17:42:00,23.3,7.4,30.20,West,270,9.0,9.0,50,0.00,,,0.01,Wunderground v.1.15,2013-03-20 22:42:00,
2013-03-20 17:48:00,22.7,7.3,30.20,WSW,254,6.0,9.0,51,0.00,,,0.01,Wunderground v.1.15,2013-03-20 22:48:00,
2013-03-20 17:53:00,22.4,7.4,30.20,NW,306,7.0,9.0,52,0.00,,,0.01,Wunderground v.1.15,2013-03-20 22:53:00,
2013-03-20 17:58:00,22.2,7.2,30.20,WNW,287,9.0,12.0,52,0.00,,,0.01,Wunderground v.1.15,2013-03-20 22:58:00,
2013-03-20 18:03:00,21.7,6.8,30.20,West,277,2.0,13.0,52,0.00,,,0.01,Wunderground v.1.15,2013-03-20 23:03:00,
2013-03-20 18:08:00,21.7,7.2,30.20,WSW,257,5.0,13.0,53,0.00,,,0.01,Wunderground v.1.15,2013-03-20 23:08:00,
2013-03-20 18:13:00,21.6,7.1,30.20,WNW,295,6.0,11.0,53,0.00,,,0.01,Wunderground v.1.15,2013-03-20 23:13:00,
2013-03-20 18:18:00,21.4,6.9,30.20,NW,309,6.0,11.0,53,0.00,,,0.01,Wunderground v.1.15,2013-03-20 23:18:00,
2013-03-20 18:24:00,21.5,7.0,30.20,WNW,293,8.0,8.0,53,0.00,,,0.01,Wunderground v.1.15,2013-03-20 23:24:00,
2013-03-20 18:29:00,21.2,7.1,30.20,NW,304,4.0,13.0,54,0.00,,,0.01,Wunderground v.1.15,2013-03-20 23:29:00,
2013-03-20 18:34:00,20.9,6.8,30.20,WSW,258,9.0,9.0,54,0.00,,,0.01,Wunderground v.1.15,2013-03-20 23:34:00,
2013-03-20 18:39:00,20.8,6.7,30.20,WNW,298,7.0,9.0,54,0.00,,,0.01,Wunderground v.1.15,2013-03-20 23:39:00,
2013-03-20 18:44:00,20.6,7.0,30.20,NW,309,6.0,12.0,55,0.00,,,0.01,Wunderground v.1.15,2013-03-20 23:44:00,
2013-03-20 18:49:00,20.4,6.8,30.21,NW,307,3.0,12.0,55,0.00,,,0.01,Wunderground v.1.15,2013-03-20 23:49:00,
2013-03-20 18:54:00,20.0,6.4,30.20,WNW,282,3.0,8.0,55,0.00,,,0.01,Wunderground v.1.15,2013-03-20 23:54:00,
2013-03-20 18:59:00,19.7,6.5,30.20,West,276,5.0,8.0,56,0.00,,,0.01,Wunderground v.1.15,2013-03-20 23:59:00,
2013-03-20 19:05:00,19.3,6.1,30.20,WNW,291,6.0,9.0,56,0.00,,,0.01,Wunderground v.1.15,2013-03-21 00:05:00,
2013-03-20 19:10:00,19.0,5.9,30.21,NW,315,3.0,9.0,56,0.00,,,0.01,Wunderground v.1.15,2013-03-21 00:10:00,
2013-03-20 19:15:00,18.7,6.0,30.20,WNW,295,5.0,6.0,57,0.00,,,0.01,Wunderground v.1.15,2013-03-21 00:15:00,
2013-03-20 19:20:00,18.4,5.7,30.20,West,269,2.0,10.0,57,0.00,,,0.01,Wunderground v.1.15,2013-03-21 00:20:00,
2013-03-20 19:25:00,18.2,5.9,30.21,NW,309,5.0,7.0,58,0.00,,,0.01,Wunderground v.1.15,2013-03-21 00:25:00,
2013-03-20 19:30:00,17.9,5.6,30.21,NW,311,3.0,10.0,58,0.00,,,0.01,Wunderground v.1.15,2013-03-21 00:30:00,
2013-03-20 19:36:00,17.6,5.7,30.21,WNW,300,2.0,6.0,59,0.00,,,0.01,Wunderground v.1.15,2013-03-21 00:36:00,
2013-03-20 19:41:00,17.3,5.4,30.21,NW,322,3.0,3.0,59,0.00,,,0.01,Wunderground v.1.15,2013-03-21 00:41:00,
2013-03-20 19:46:00,17.1,5.2,30.21,NW,312,7.0,7.0,59,0.00,,,0.01,Wunderground v.1.15,2013-03-21 00:46:00,
2013-03-20 19:51:00,16.8,5.3,30.21,NW,321,2.0,6.0,60,0.00,,,0.01,Wunderground v.1.15,2013-03-21 00:51:00,
2013-03-20 19:57:00,16.6,5.1,30.21,NW,317,2.0,8.0,60,0.00,,,0.01,Wunderground v.1.15,2013-03-21 00:57:00,
2013-03-20 20:02:00,16.3,5.2,30.21,WNW,297,2.0,3.0,61,0.00,,,0.01,Wunderground v.1.15,2013-03-21 01:02:00,
2013-03-20 20:07:00,16.0,4.9,30.21,WNW,297,0.0,3.0,61,0.00,,,0.01,Wunderground v.1.15,2013-03-21 01:07:00,
2013-03-20 20:12:00,15.7,5.0,30.21,WNW,297,0.0,0.0,62,0.00,,,0.01,Wunderground v.1.15,2013-03-21 01:12:00,
2013-03-20 20:17:00,15.3,4.6,30.21,NW,306,0.0,4.0,62,0.00,,,0.01,Wunderground v.1.15,2013-03-21 01:17:00,
2013-03-20 20:22:00,15.0,4.3,30.21,NW,304,0.0,0.0,62,0.00,,,0.01,Wunderground v.1.15,2013-03-21 01:22:00,
2013-03-20 20:27:00,14.7,4.4,30.21,NW,304,2.0,2.0,63,0.00,,,0.01,Wunderground v.1.15,2013-03-21 01:27:00,
2013-03-20 20:33:00,14.3,4.0,30.21,NW,304,0.0,0.0,63,0.00,,,0.01,Wunderground v.1.15,2013-03-21 01:33:00,
2013-03-20 20:38:00,13.9,4.0,30.21,NW,304,1.0,3.0,64,0.00,,,0.01,Wunderground v.1.15,2013-03-21 01:38:00,
2013-03-20 20:43:00,13.6,4.0,30.21,NW,304,0.0,3.0,65,0.00,,,0.01,Wunderground v.1.15,2013-03-21 01:43:00,
2013-03-20 20:48:00,13.5,3.9,30.21,WNW,299,1.0,3.0,65,0.00,,,0.01,Wunderground v.1.15,2013-03-21 01:48:00,
2013-03-20 20:53:00,13.4,3.8,30.21,WNW,299,2.0,3.0,65,0.00,,,0.01,Wunderground v.1.15,2013-03-21 01:53:00,
2013-03-20 20:58:00,13.1,3.9,30.21,WNW,300,0.0,4.0,66,0.00,,,0.01,Wunderground v.1.15,2013-03-21 01:58:00,
2013-03-20 21:04:00,12.8,3.6,30.22,WNW,300,0.0,3.0,66,0.00,,,0.01,Wunderground v.1.15,2013-03-21 02:04:00,
2013-03-20 21:09:00,12.6,3.7,30.22,WNW,300,1.0,3.0,67,0.00,,,0.01,Wunderground v.1.15,2013-03-21 02:09:00,
2013-03-20 21:14:00,12.6,3.7,30.22,WNW,300,2.0,3.0,67,0.00,,,0.01,Wunderground v.1.15,2013-03-21 02:14:00,
2013-03-20 21:19:00,12.5,3.6,30.22,WNW,300,0.0,3.0,67,0.00,,,0.01,Wunderground v.1.15,2013-03-21 02:19:00,
2013-03-20 21:24:00,12.3,3.4,30.22,WNW,295,5.0,5.0,67,0.00,,,0.01,Wunderground v.1.15,2013-03-21 02:24:00,
2013-03-20 21:29:00,12.2,3.3,30.22,NW,304,1.0,6.0,67,0.00,,,0.01,Wunderground v.1.15,2013-03-21 02:29:00,
2013-03-20 21:34:00,12.0,3.5,30.22,NW,314,2.0,5.0,68,0.00,,,0.01,Wunderground v.1.15,2013-03-21 02:34:00,
2013-03-20 21:39:00,11.9,3.4,30.22,NW,309,3.0,6.0,68,0.00,,,0.01,Wunderground v.1.15,2013-03-21 02:39:00,
2013-03-20 21:44:00,11.7,3.2,30.21,NW,308,1.0,4.0,68,0.00,,,0.01,Wunderground v.1.15,2013-03-21 02:44:00,
2013-03-20 21:50:00,11.6,3.4,30.21,NW,308,0.0,4.0,69,0.00,,,0.01,Wunderground v.1.15,2013-03-21 02:50:00,
2013-03-20 21:55:00,11.5,3.3,30.22,NW,311,2.0,6.0,69,0.00,,,0.01,Wunderground v.1.15,2013-03-21 02:55:00,
2013-03-20 22:00:00,11.6,3.4,30.22,NW,322,1.0,6.0,69,0.00,,,0.01,Wunderground v.1.15,2013-03-21 03:00:00,
2013-03-20 22:05:00,11.4,3.2,30.22,NW,309,3.0,4.0,69,0.00,,,0.01,Wunderground v.1.15,2013-03-21 03:05:00,
2013-03-20 22:10:00,11.3,5.5,30.22,WNW,300,6.0,6.0,77,0.00,,,0.01,Wunderground v.1.15,2013-03-21 03:10:00,
2013-03-20 22:15:00,11.2,3.3,30.22,NW,319,2.0,7.0,70,0.00,,,0.01,Wunderground v.1.15,2013-03-21 03:15:00,
2013-03-20 22:20:00,11.1,3.2,30.22,NW,308,3.0,7.0,70,0.00,,,0.01,Wunderground v.1.15,2013-03-21 03:20:00,
2013-03-20 22:25:00,11.0,3.1,30.22,NW,310,3.0,5.0,70,0.00,,,0.01,Wunderground v.1.15,2013-03-21 03:25:00,
2013-03-20 22:30:00,11.0,3.1,30.22,NW,310,1.0,5.0,70,0.00,,,0.01,Wunderground v.1.15,2013-03-21 03:30:00,
2013-03-20 22:36:00,11.1,3.2,30.22,WNW,298,2.0,6.0,70,0.00,,,0.01,Wunderground v.1.15,2013-03-21 03:36:00,
2013-03-20 22:41:00,11.0,3.1,30.22,NW,306,2.0,3.0,70,0.00,,,0.01,Wunderground v.1.15,2013-03-21 03:41:00,
2013-03-20 22:46:00,10.9,3.0,30.22,WNW,298,1.0,4.0,70,0.00,,,0.01,Wunderground v.1.15,2013-03-21 03:46:00,
2013-03-20 22:51:00,10.6,2.7,30.22,WNW,298,4.0,4.0,70,0.00,,,0.01,Wunderground v.1.15,2013-03-21 03:51:00,
2013-03-20 22:56:00,10.3,2.8,30.22,WNW,297,0.0,4.0,71,0.00,,,0.01,Wunderground v.1.15,2013-03-21 03:56:00,
2013-03-20 23:00:00,10.1,2.6,30.22,WNW,297,0.0,4.0,71,0.00,,,0.01,Wunderground v.1.15,2013-03-21 04:00:00,
2013-03-20 23:01:00,10.1,2.6,30.22,WNW,297,0.0,1.0,71,0.00,,,0.01,Wunderground v.1.15,2013-03-21 04:01:00,
2013-03-20 23:06:00,9.8,2.6,30.22,WNW,297,0.0,2.0,72,0.00,,,0.01,Wunderground v.1.15,2013-03-21 04:06:00,
2013-03-20 23:11:00,9.6,2.4,30.22,WNW,297,0.0,1.0,72,0.00,,,0.01,Wunderground v.1.15,2013-03-21 04:11:00,
2013-03-20 23:16:00,9.3,2.4,30.22,WNW,297,0.0,1.0,73,0.00,,,0.01,Wunderground v.1.15,2013-03-21 04:16:00,
2013-03-20 23:21:00,9.1,2.2,30.22,WNW,297,1.0,1.0,73,0.00,,,0.01,Wunderground v.1.15,2013-03-21 04:21:00,
2013-03-20 23:27:00,8.8,1.9,30.22,WNW,298,0.0,3.0,73,0.00,,,0.01,Wunderground v.1.15,2013-03-21 04:27:00,
2013-03-20 23:32:00,8.6,1.7,30.22,WNW,298,0.0,2.0,73,0.00,,,0.01,Wunderground v.1.15,2013-03-21 04:32:00,
2013-03-20 23:37:00,8.4,1.8,30.22,WNW,300,2.0,4.0,74,0.00,,,0.01,Wunderground v.1.15,2013-03-21 04:37:00,
2013-03-20 23:42:00,8.3,1.7,30.22,WNW,303,0.0,6.0,74,0.00,,,0.01,Wunderground v.1.15,2013-03-21 04:42:00,
2013-03-20 23:47:00,8.3,1.7,30.22,WNW,302,4.0,6.0,74,0.00,,,0.01,Wunderground v.1.15,2013-03-21 04:47:00,
2013-03-20 23:53:00,8.2,1.9,30.22,WNW,300,4.0,5.0,75,0.00,,,0.01,Wunderground v.1.15,2013-03-21 04:53:00,
2013-03-20 23:58:00,8.2,1.9,30.22,NW,321,2.0,6.0,75,0.00,,,0.01,Wunderground v.1.15,2013-03-21 04:58:00,